createdAt,value
2018-06-24T00:00:46.852Z,48.90
2018-06-24T00:05:50.037Z,49.10
2018-06-24T00:10:53.268Z,48.80
2018-06-24T00:15:56.450Z,49.20
2018-06-24T00:20:59.643Z,49.20
2018-06-24T00:26:02.827Z,49.10
2018-06-24T00:31:06.036Z,49.00
2018-06-24T00:36:09.231Z,49.20
2018-06-24T00:41:12.435Z,49.10
2018-06-24T00:46:15.643Z,49.20
2018-06-24T00:51:18.883Z,49.30
2018-06-24T00:56:22.087Z,49.10
2018-06-24T01:01:25.273Z,49.20
2018-06-24T01:06:28.492Z,49.60
2018-06-24T01:11:31.734Z,49.50
2018-06-24T01:16:34.951Z,49.60
2018-06-24T01:21:38.152Z,49.60
2018-06-24T01:26:41.370Z,50.00
2018-06-24T01:31:44.593Z,49.60
2018-06-24T01:36:47.820Z,49.50
2018-06-24T01:41:51.120Z,49.70
2018-06-24T01:46:54.359Z,49.70
2018-06-24T01:51:57.555Z,49.80
2018-06-24T01:57:00.913Z,49.80
2018-06-24T02:02:04.121Z,49.70
2018-06-24T02:07:07.339Z,49.80
2018-06-24T02:12:10.573Z,50.00
2018-06-24T02:17:13.764Z,50.10
2018-06-24T02:22:16.994Z,50.00
2018-06-24T02:27:20.229Z,50.00
2018-06-24T02:32:23.505Z,50.10
2018-06-24T02:37:26.733Z,50.10
2018-06-24T02:42:29.928Z,50.00
2018-06-24T02:47:33.152Z,49.90
2018-06-24T02:52:36.364Z,50.10
2018-06-24T02:57:39.666Z,50.10
2018-06-24T03:02:42.865Z,50.30
2018-06-24T03:07:46.124Z,50.10
2018-06-24T03:12:49.415Z,50.20
2018-06-24T03:17:52.651Z,50.20
2018-06-24T03:22:55.864Z,50.10
2018-06-24T03:27:59.074Z,50.30
2018-06-24T03:33:02.596Z,50.50
2018-06-24T03:38:05.796Z,50.40
2018-06-24T03:43:09.032Z,50.40
2018-06-24T03:48:12.300Z,50.70
2018-06-24T03:53:15.559Z,50.60
2018-06-24T03:58:18.796Z,50.50
2018-06-24T04:03:22.016Z,50.40
2018-06-24T04:08:25.235Z,50.40
2018-06-24T04:13:28.480Z,50.60
2018-06-24T04:18:36.093Z,50.40
2018-06-24T04:23:39.389Z,50.50
2018-06-24T04:28:42.600Z,50.50
2018-06-24T04:33:45.820Z,50.80
2018-06-24T04:38:49.037Z,50.70
2018-06-24T04:43:52.253Z,50.50
2018-06-24T04:48:55.519Z,50.90
2018-06-24T04:53:58.892Z,50.90
2018-06-24T04:59:02.100Z,50.80
2018-06-24T05:04:05.396Z,50.80
2018-06-24T05:09:09.817Z,51.70
2018-06-24T05:14:13.036Z,51.10
2018-06-24T05:19:17.091Z,50.80
2018-06-24T05:24:20.304Z,51.20
2018-06-24T05:29:23.545Z,51.10
2018-06-24T05:34:26.767Z,51.00
2018-06-24T05:39:29.981Z,51.10
2018-06-24T05:44:33.190Z,51.20
2018-06-24T05:49:36.407Z,51.10
2018-06-24T05:54:39.601Z,51.10
2018-06-24T05:59:42.801Z,51.40
2018-06-24T06:04:46.018Z,51.30
2018-06-24T06:09:49.203Z,51.30
2018-06-24T06:14:52.421Z,51.20
2018-06-24T06:19:55.626Z,51.40
2018-06-24T06:24:58.831Z,51.30
2018-06-24T06:30:02.037Z,51.50
2018-06-24T06:35:05.712Z,51.40
2018-06-24T06:40:08.933Z,51.20
2018-06-24T06:45:12.261Z,51.80
2018-06-24T06:50:15.446Z,51.50
2018-06-24T06:55:18.668Z,51.50
2018-06-24T07:00:21.880Z,51.50
2018-06-24T07:05:25.095Z,51.40
2018-06-24T07:10:28.380Z,52.00
2018-06-24T07:15:31.783Z,51.60
2018-06-24T07:20:35.035Z,51.50
2018-06-24T07:25:38.323Z,51.50
2018-06-24T07:30:41.532Z,51.60
2018-06-24T07:35:44.763Z,51.70
2018-06-24T07:40:48.041Z,51.50
2018-06-24T07:45:51.260Z,52.10
2018-06-24T07:50:54.463Z,52.00
2018-06-24T08:01:00.622Z,52.00
2018-06-24T08:06:03.840Z,52.00
2018-06-24T08:11:07.099Z,52.20
2018-06-24T08:16:10.337Z,51.90
2018-06-24T08:21:13.552Z,52.10
2018-06-24T08:26:16.772Z,52.00
2018-06-24T08:31:20.004Z,52.00
2018-06-24T08:36:23.219Z,51.70
2018-06-24T08:41:26.450Z,51.80
2018-06-24T08:46:29.644Z,51.80
2018-06-24T08:51:32.861Z,51.60
2018-06-24T08:56:36.084Z,51.90
2018-06-24T09:01:39.305Z,51.50
2018-06-24T09:06:42.506Z,51.80
2018-06-24T09:11:45.738Z,51.50
2018-06-24T09:16:48.917Z,51.20
2018-06-24T09:21:52.104Z,51.40
2018-06-24T09:26:55.316Z,51.00
2018-06-24T09:31:58.671Z,51.40
2018-06-24T09:37:01.929Z,51.30
2018-06-24T09:42:05.261Z,51.20
2018-06-24T09:47:08.573Z,50.60
2018-06-24T09:52:11.784Z,50.20
2018-06-24T09:57:15.004Z,51.20
2018-06-24T10:02:18.299Z,51.20
2018-06-24T10:07:21.508Z,51.40
2018-06-24T10:12:24.730Z,50.70
2018-06-24T10:17:27.924Z,50.70
2018-06-24T10:22:31.136Z,51.10
2018-06-24T10:27:34.352Z,51.30
2018-06-24T10:32:37.543Z,50.90
2018-06-24T10:37:40.776Z,50.30
2018-06-24T10:42:43.983Z,49.80
2018-06-24T10:47:47.188Z,50.40
2018-06-24T10:52:50.435Z,50.40
2018-06-24T10:57:53.701Z,51.30
2018-06-24T11:02:56.903Z,51.60
2018-06-24T11:08:00.133Z,49.30
2018-06-24T11:13:03.356Z,52.10
2018-06-24T11:18:06.540Z,51.10
2018-06-24T11:23:09.745Z,50.70
2018-06-24T11:28:12.935Z,50.70
2018-06-24T11:33:16.116Z,50.10
2018-06-24T11:38:19.407Z,50.30
2018-06-24T11:43:22.608Z,51.10
2018-06-24T11:48:25.796Z,50.50
2018-06-24T11:53:29.012Z,50.60
2018-06-24T11:58:32.214Z,51.90
2018-06-24T12:03:35.436Z,50.60
2018-06-24T12:08:38.728Z,50.00
2018-06-24T12:13:42.804Z,50.20
2018-06-24T12:18:46.018Z,50.10
2018-06-24T12:28:58.657Z,49.60
2018-06-24T12:34:01.896Z,49.30
2018-06-24T12:39:08.678Z,49.60
2018-06-24T12:44:11.903Z,49.60
2018-06-24T12:49:15.093Z,50.20
2018-06-24T12:59:21.360Z,50.00
2018-06-24T13:04:24.484Z,49.70
2018-06-24T13:09:27.689Z,49.30
2018-06-24T13:14:30.932Z,50.20
2018-06-24T13:19:34.136Z,49.20
2018-06-24T13:24:37.400Z,50.30
2018-06-24T13:29:40.603Z,48.90
2018-06-24T13:34:43.809Z,50.20
2018-06-24T13:39:47.007Z,49.40
2018-06-24T13:44:50.260Z,49.90
2018-06-24T13:49:53.480Z,50.00
2018-06-24T13:54:56.973Z,49.70
2018-06-24T14:00:01.007Z,49.20
2018-06-24T14:05:04.268Z,49.40
2018-06-24T14:10:07.471Z,49.20
2018-06-24T14:15:10.809Z,49.20
2018-06-24T14:20:14.057Z,49.10
2018-06-24T14:25:17.572Z,49.20
2018-06-24T14:30:20.970Z,49.20
2018-06-24T14:35:24.374Z,49.70
2018-06-24T14:40:27.584Z,49.60
2018-06-24T14:45:31.040Z,49.50
2018-06-24T14:50:34.248Z,49.90
2018-06-24T14:55:37.533Z,49.60
2018-06-24T15:00:40.692Z,49.30
2018-06-24T15:05:44.139Z,49.90
2018-06-24T15:10:47.468Z,50.30
2018-06-24T15:15:50.748Z,50.10
2018-06-24T15:20:53.991Z,50.80
2018-06-24T15:25:57.313Z,50.30
2018-06-24T15:31:00.668Z,50.80
2018-06-24T15:36:03.901Z,50.50
2018-06-24T15:41:07.126Z,51.20
2018-06-24T15:46:10.536Z,51.30
2018-06-24T15:51:15.228Z,51.30
2018-06-24T15:56:18.563Z,50.80
2018-06-24T16:01:21.780Z,51.00
2018-06-24T16:06:24.996Z,51.30
2018-06-24T16:11:28.227Z,51.00
2018-06-24T16:16:31.434Z,51.30
2018-06-24T16:21:34.648Z,52.20
2018-06-24T16:26:37.852Z,52.00
2018-06-24T16:31:41.088Z,51.80
2018-06-24T16:36:44.304Z,51.80
2018-06-24T16:41:47.564Z,51.90
2018-06-24T16:46:50.776Z,52.50
2018-06-24T16:51:53.987Z,52.70
2018-06-24T16:56:57.196Z,52.60
2018-06-24T17:02:00.413Z,53.40
2018-06-24T17:07:03.656Z,52.20
2018-06-24T17:12:06.899Z,52.60
2018-06-24T17:17:10.178Z,52.10
2018-06-24T17:22:13.332Z,52.20
2018-06-24T17:27:16.531Z,52.20
2018-06-24T17:32:19.751Z,52.40
2018-06-24T17:37:22.968Z,52.50
2018-06-24T17:42:26.171Z,52.70
2018-06-24T17:47:29.424Z,52.60
2018-06-24T17:52:32.603Z,52.60
2018-06-24T17:57:35.825Z,52.70
2018-06-24T18:02:39.059Z,52.60
2018-06-24T18:07:42.292Z,52.80
2018-06-24T18:12:45.514Z,52.80
2018-06-24T18:17:48.779Z,52.60
2018-06-24T18:22:51.938Z,53.10
2018-06-24T18:27:55.197Z,53.00
2018-06-24T18:32:58.498Z,52.90
2018-06-24T18:38:01.702Z,53.20
2018-06-24T18:43:04.992Z,53.50
2018-06-24T18:48:08.196Z,53.30
2018-06-24T18:53:11.416Z,53.30
2018-06-24T18:58:14.622Z,53.40
2018-06-24T19:03:17.843Z,53.80
2018-06-24T19:08:21.052Z,53.60
2018-06-24T19:13:24.280Z,54.20
2018-06-24T19:18:27.526Z,54.20
2018-06-24T19:23:30.755Z,54.20
2018-06-24T19:28:34.096Z,54.00
2018-06-24T19:33:37.293Z,54.10
2018-06-24T19:38:40.485Z,54.50
2018-06-24T19:43:43.704Z,54.20
2018-06-24T19:48:46.908Z,54.40
2018-06-24T19:53:50.097Z,54.30
2018-06-24T20:03:56.238Z,54.40
2018-06-24T20:08:59.447Z,54.40
2018-06-24T20:14:02.664Z,54.30
2018-06-24T20:19:06.019Z,54.40
2018-06-24T20:24:09.227Z,54.60
2018-06-24T20:29:12.439Z,54.60
2018-06-24T20:34:15.715Z,54.60
2018-06-24T20:39:18.937Z,54.60
2018-06-24T20:44:22.281Z,54.60
2018-06-24T20:49:25.483Z,54.80
2018-06-24T20:54:28.688Z,55.00
2018-06-24T20:59:31.921Z,55.80
2018-06-24T21:04:35.140Z,55.10
2018-06-24T21:09:38.331Z,55.10
2018-06-24T21:14:41.548Z,55.10
2018-06-24T21:19:44.869Z,55.30
2018-06-24T21:24:48.135Z,55.30
2018-06-24T21:29:51.340Z,55.70
2018-06-24T21:34:54.552Z,56.00
2018-06-24T21:39:57.768Z,56.40
2018-06-24T21:45:00.960Z,57.10
2018-06-24T21:50:05.464Z,56.90
2018-06-24T21:55:08.722Z,55.60
2018-06-24T22:00:14.116Z,55.60
2018-06-24T22:05:17.300Z,55.70
2018-06-24T22:10:20.732Z,55.70
2018-06-24T22:15:24.044Z,56.20
2018-06-24T22:20:29.868Z,55.70
2018-06-24T22:25:33.094Z,55.40
2018-06-24T22:30:36.308Z,55.50
2018-06-24T22:35:39.515Z,55.30
2018-06-24T22:40:42.728Z,55.30
2018-06-24T22:45:45.941Z,55.50
2018-06-24T22:50:49.139Z,55.60
2018-06-24T22:55:52.351Z,55.50
2018-06-24T23:00:55.557Z,55.50
2018-06-24T23:05:58.764Z,55.30
2018-06-24T23:11:01.992Z,55.40
2018-06-24T23:16:05.340Z,55.70
2018-06-24T23:21:08.528Z,55.50
2018-06-24T23:26:11.736Z,55.50
2018-06-24T23:31:14.923Z,55.50
2018-06-24T23:36:18.115Z,55.50
2018-06-24T23:41:21.351Z,55.70
2018-06-24T23:46:24.545Z,55.90
2018-06-24T23:51:27.727Z,56.00
2018-06-24T23:56:30.923Z,56.00
